createdAt,value
2022-08-25T00:00:06.298Z,9.60
2022-08-25T00:00:29.033Z,9.65
2022-08-25T00:00:51.814Z,9.65
2022-08-25T00:01:17.173Z,9.80
2022-08-25T00:01:42.498Z,10.27
2022-08-25T00:02:08.980Z,10.57
2022-08-25T00:02:33.559Z,9.90
2022-08-25T00:02:58.156Z,9.68
2022-08-25T00:03:21.764Z,9.43
2022-08-25T00:03:46.305Z,9.20
2022-08-25T00:04:11.678Z,9.98
2022-08-25T00:04:36.529Z,9.32
2022-08-25T00:04:59.780Z,9.20
2022-08-25T00:05:26.129Z,9.38
2022-08-25T00:05:51.661Z,9.27
2022-08-25T00:06:14.560Z,9.05
2022-08-25T00:06:37.524Z,9.40
2022-08-25T00:07:03.175Z,9.20
2022-08-25T00:07:26.553Z,8.77
2022-08-25T00:07:49.377Z,9.15
2022-08-25T00:08:12.132Z,8.85
2022-08-25T00:08:38.065Z,9.02
2022-08-25T00:09:01.076Z,9.38
2022-08-25T00:09:27.931Z,9.05
2022-08-25T00:09:51.270Z,9.18
2022-08-25T00:10:14.095Z,9.35
2022-08-25T00:10:38.081Z,9.07
2022-08-25T00:11:03.732Z,9.60
2022-08-25T00:11:28.215Z,9.80
2022-08-25T00:11:53.304Z,9.60
2022-08-25T00:12:16.230Z,9.10
2022-08-25T00:12:39.174Z,9.45
2022-08-25T00:13:02.790Z,9.48
2022-08-25T00:13:25.719Z,9.77
2022-08-25T00:13:50.931Z,10.23
2022-08-25T00:14:15.124Z,9.80
2022-08-25T00:14:38.073Z,9.35
2022-08-25T00:15:01.105Z,10.15
2022-08-25T00:15:24.292Z,10.10
2022-08-25T00:15:47.386Z,9.52
2022-08-25T00:16:10.429Z,9.82
2022-08-25T00:16:36.515Z,10.13
2022-08-25T00:16:59.480Z,10.10
2022-08-25T00:17:22.275Z,9.80
2022-08-25T00:17:45.810Z,10.18
2022-08-25T00:18:19.537Z,9.95
2022-08-25T00:18:45.330Z,9.05
2022-08-25T00:19:11.520Z,9.38
2022-08-25T00:19:36.105Z,9.43
2022-08-25T00:19:58.945Z,9.27
2022-08-25T00:20:22.616Z,8.88
2022-08-25T00:20:49.034Z,9.65
2022-08-25T00:21:12.606Z,9.40
2022-08-25T00:21:35.319Z,9.40
2022-08-25T00:21:58.165Z,9.20
2022-08-25T00:22:21.021Z,9.18
2022-08-25T00:22:46.576Z,9.27
2022-08-25T00:23:09.331Z,9.25
2022-08-25T00:23:32.170Z,9.30
2022-08-25T00:23:55.270Z,9.63
2022-08-25T00:24:19.772Z,10.07
2022-08-25T00:24:42.890Z,9.60
2022-08-25T00:25:06.725Z,9.32
2022-08-25T00:25:29.489Z,9.30
2022-08-25T00:25:52.215Z,9.13
2022-08-25T00:26:15.870Z,8.25
2022-08-25T00:26:39.925Z,7.63
2022-08-25T00:27:04.698Z,7.60
2022-08-25T00:27:28.222Z,7.93
2022-08-25T00:27:51.119Z,7.80
2022-08-25T00:28:15.277Z,7.97
2022-08-25T00:28:38.372Z,7.80
2022-08-25T00:29:02.115Z,7.57
2022-08-25T00:29:27.985Z,7.85
2022-08-25T00:29:51.099Z,7.63
2022-08-25T00:30:15.903Z,7.70
2022-08-25T00:30:39.740Z,7.32
2022-08-25T00:31:02.632Z,7.30
2022-08-25T00:31:37.756Z,7.35
2022-08-25T00:32:01.896Z,8.02
2022-08-25T00:32:25.816Z,7.53
2022-08-25T00:32:51.497Z,7.70
2022-08-25T00:33:19.995Z,7.30
2022-08-25T00:33:45.555Z,7.40
2022-08-25T00:34:09.698Z,7.63
2022-08-25T00:34:34.644Z,7.50
2022-08-25T00:34:57.605Z,7.60
2022-08-25T00:35:20.717Z,7.28
2022-08-25T00:35:43.560Z,7.60
2022-08-25T00:36:07.502Z,7.10
2022-08-25T00:36:30.393Z,7.40
2022-08-25T00:36:53.633Z,7.32
2022-08-25T00:37:16.552Z,7.45
2022-08-25T00:37:39.393Z,6.75
2022-08-25T00:38:02.193Z,7.40
2022-08-25T00:38:25.160Z,7.78
2022-08-25T00:38:48.193Z,7.50
2022-08-25T00:39:11.699Z,7.00
2022-08-25T00:39:34.709Z,7.45
2022-08-25T00:39:58.721Z,6.97
2022-08-25T00:40:21.847Z,7.32
2022-08-25T00:40:44.723Z,7.20
2022-08-25T00:41:07.504Z,6.88
2022-08-25T00:41:30.628Z,6.60
2022-08-25T00:41:56.078Z,6.93
2022-08-25T00:42:21.095Z,6.95
2022-08-25T00:42:44.028Z,6.75
2022-08-25T00:43:06.987Z,6.72
2022-08-25T00:43:33.042Z,6.90
2022-08-25T00:43:57.238Z,7.03
2022-08-25T00:44:20.259Z,6.97
2022-08-25T00:44:44.113Z,6.95
2022-08-25T00:45:07.928Z,7.03
2022-08-25T00:45:31.489Z,7.13
2022-08-25T00:45:54.525Z,7.00
2022-08-25T00:46:18.816Z,7.07
2022-08-25T00:46:43.438Z,6.90
2022-08-25T00:47:06.953Z,7.32
2022-08-25T00:47:31.747Z,6.93
2022-08-25T00:47:56.714Z,6.80
2022-08-25T00:48:22.937Z,7.10
2022-08-25T00:48:51.337Z,6.80
2022-08-25T00:49:24.698Z,6.90
2022-08-25T00:49:49.823Z,6.90
2022-08-25T00:50:12.733Z,7.05
2022-08-25T00:50:35.622Z,7.10
2022-08-25T00:50:58.442Z,7.28
2022-08-25T00:51:29.812Z,7.15
2022-08-25T00:51:54.637Z,6.97
2022-08-25T00:52:20.552Z,6.78
2022-08-25T00:52:44.917Z,7.00
2022-08-25T00:53:07.791Z,7.00
2022-08-25T00:53:30.841Z,6.93
2022-08-25T00:53:54.221Z,6.75
2022-08-25T00:54:20.681Z,6.30
2022-08-25T00:54:46.492Z,7.28
2022-08-25T00:55:11.762Z,7.10
2022-08-25T00:55:37.180Z,7.10
2022-08-25T00:56:00.077Z,7.22
2022-08-25T00:56:23.242Z,6.82
2022-08-25T00:56:46.128Z,6.80
2022-08-25T00:57:09.957Z,7.18
2022-08-25T00:57:36.526Z,7.30
2022-08-25T00:58:03.158Z,7.13
2022-08-25T00:58:28.050Z,7.15
2022-08-25T00:58:50.919Z,7.25
2022-08-25T00:59:14.314Z,6.82
2022-08-25T00:59:37.174Z,7.13
2022-08-25T01:00:00.559Z,7.22
2022-08-25T01:00:25.676Z,7.15
2022-08-25T01:00:50.304Z,7.05
2022-08-25T01:01:13.261Z,6.50
2022-08-25T01:01:36.369Z,6.97
2022-08-25T01:01:59.513Z,7.10
2022-08-25T01:02:23.680Z,7.07
2022-08-25T01:02:46.728Z,6.90
2022-08-25T01:03:10.027Z,7.00
2022-08-25T01:03:35.758Z,7.10
2022-08-25T01:03:59.116Z,7.40
2022-08-25T01:04:22.031Z,6.93
2022-08-25T01:04:48.648Z,7.07
2022-08-25T01:05:12.650Z,7.10
2022-08-25T01:05:35.642Z,7.20
2022-08-25T01:05:58.961Z,7.38
2022-08-25T01:06:21.730Z,7.25
2022-08-25T01:06:44.964Z,7.47
2022-08-25T01:07:07.797Z,6.97
2022-08-25T01:07:38.704Z,7.60
2022-08-25T01:08:06.771Z,7.20
2022-08-25T01:08:29.954Z,7.00
2022-08-25T01:08:56.258Z,7.30
2022-08-25T01:09:19.024Z,6.93
2022-08-25T01:09:42.295Z,6.93
2022-08-25T01:10:07.891Z,6.88
2022-08-25T01:10:30.814Z,6.88
2022-08-25T01:10:53.834Z,7.15
2022-08-25T01:11:16.728Z,7.32
2022-08-25T01:11:40.049Z,6.80
2022-08-25T01:12:03.144Z,7.13
2022-08-25T01:12:25.919Z,7.43
2022-08-25T01:12:50.409Z,6.97
2022-08-25T01:13:16.633Z,6.75
2022-08-25T01:13:41.656Z,6.80
2022-08-25T01:14:06.637Z,7.00
2022-08-25T01:14:31.645Z,6.78
2022-08-25T01:14:54.625Z,6.60
2022-08-25T01:15:17.590Z,6.88
2022-08-25T01:15:40.615Z,7.00
2022-08-25T01:16:04.086Z,6.82
2022-08-25T01:16:27.440Z,7.03
2022-08-25T01:16:51.197Z,6.90
2022-08-25T01:17:16.992Z,6.82
2022-08-25T01:17:46.602Z,6.93
2022-08-25T01:18:09.590Z,7.00
2022-08-25T01:18:43.665Z,6.82
2022-08-25T01:19:07.710Z,6.72
2022-08-25T01:19:33.695Z,6.82
2022-08-25T01:19:56.435Z,7.00
2022-08-25T01:20:23.060Z,7.07
2022-08-25T01:20:53.970Z,7.00
2022-08-25T01:21:18.261Z,6.38
2022-08-25T01:21:41.893Z,6.72
2022-08-25T01:22:05.720Z,6.80
2022-08-25T01:22:28.661Z,6.55
2022-08-25T01:22:55.026Z,6.88
2022-08-25T01:23:18.634Z,7.00
2022-08-25T01:23:42.335Z,7.03
2022-08-25T01:24:06.305Z,7.30
2022-08-25T01:24:34.471Z,6.72
2022-08-25T01:24:59.849Z,6.30
2022-08-25T01:25:33.020Z,6.43
2022-08-25T01:25:59.579Z,6.63
2022-08-25T01:26:28.311Z,6.53
2022-08-25T01:26:53.734Z,6.63
2022-08-25T01:27:16.484Z,6.80
2022-08-25T01:27:39.419Z,6.47
2022-08-25T01:28:02.676Z,6.88
2022-08-25T01:28:25.504Z,6.72
2022-08-25T01:29:07.404Z,6.60
2022-08-25T01:29:30.208Z,6.32
2022-08-25T01:29:53.263Z,6.18
2022-08-25T01:30:16.085Z,6.03
2022-08-25T01:30:39.219Z,6.43
2022-08-25T01:31:02.032Z,6.25
2022-08-25T01:31:25.022Z,6.20
2022-08-25T01:31:47.985Z,6.38
2022-08-25T01:32:13.326Z,6.78
2022-08-25T01:32:36.420Z,6.10
2022-08-25T01:32:59.469Z,6.32
2022-08-25T01:33:22.270Z,6.65
2022-08-25T01:33:45.164Z,7.00
2022-08-25T01:34:12.369Z,6.80
2022-08-25T01:34:37.166Z,6.40
2022-08-25T01:35:00.057Z,6.50
2022-08-25T01:35:22.931Z,6.13
2022-08-25T01:35:45.854Z,6.40
2022-08-25T01:36:10.185Z,6.65
2022-08-25T01:36:33.505Z,6.60
2022-08-25T01:36:56.531Z,6.50
2022-08-25T01:37:19.409Z,7.20
2022-08-25T01:37:42.373Z,6.78
2022-08-25T01:38:06.515Z,6.45
2022-08-25T01:38:29.459Z,6.90
2022-08-25T01:38:52.366Z,6.53
2022-08-25T01:39:15.189Z,6.13
2022-08-25T01:39:38.135Z,6.45
2022-08-25T01:40:01.108Z,6.80
2022-08-25T01:40:26.703Z,6.15
2022-08-25T01:40:49.524Z,6.68
2022-08-25T01:41:12.254Z,6.47
2022-08-25T01:41:40.889Z,6.45
2022-08-25T01:42:28.694Z,6.50
2022-08-25T01:42:59.124Z,6.60
2022-08-25T01:43:26.931Z,6.60
2022-08-25T01:43:49.728Z,6.47
2022-08-25T01:44:16.167Z,6.35
2022-08-25T01:44:41.368Z,6.30
2022-08-25T01:45:05.833Z,6.50
2022-08-25T01:45:29.033Z,6.45
2022-08-25T01:45:52.239Z,6.18
2022-08-25T01:46:15.423Z,6.45
2022-08-25T01:46:38.983Z,6.82
2022-08-25T01:47:01.843Z,6.57
2022-08-25T01:47:24.773Z,6.70
2022-08-25T01:47:50.397Z,6.43
2022-08-25T01:48:13.273Z,6.30
2022-08-25T01:48:36.928Z,6.70
2022-08-25T01:49:02.773Z,6.43
2022-08-25T01:49:29.318Z,6.50
2022-08-25T01:49:52.213Z,6.18
2022-08-25T01:50:14.963Z,6.68
2022-08-25T01:50:37.871Z,6.45
2022-08-25T01:51:00.804Z,6.55
2022-08-25T01:51:25.858Z,6.60
2022-08-25T01:51:51.578Z,6.55
2022-08-25T01:52:20.523Z,6.47
2022-08-25T01:52:48.239Z,6.55
2022-08-25T01:53:16.874Z,6.38
2022-08-25T01:53:39.793Z,6.90
2022-08-25T01:54:02.947Z,6.82
2022-08-25T01:54:25.965Z,6.65
2022-08-25T01:54:49.003Z,6.80
2022-08-25T01:55:11.854Z,6.40
2022-08-25T01:55:51.871Z,6.35
2022-08-25T01:56:15.628Z,6.43
2022-08-25T01:56:39.399Z,6.22
2022-08-25T01:57:02.374Z,6.40
2022-08-25T01:57:30.294Z,6.82
2022-08-25T01:57:53.365Z,6.72
2022-08-25T01:58:16.165Z,6.90
2022-08-25T01:58:40.264Z,6.70
2022-08-25T01:59:03.262Z,6.63
2022-08-25T01:59:26.074Z,6.95
2022-08-25T01:59:49.024Z,6.47
2022-08-25T02:00:14.349Z,6.70
2022-08-25T02:00:37.390Z,6.70
2022-08-25T02:01:03.771Z,6.80
2022-08-25T02:01:26.650Z,6.95
2022-08-25T02:01:49.709Z,6.55
2022-08-25T02:02:12.725Z,6.53
2022-08-25T02:02:35.722Z,6.63
2022-08-25T02:02:59.023Z,6.80
2022-08-25T02:03:21.864Z,6.90
2022-08-25T02:03:46.714Z,6.75
2022-08-25T02:04:10.878Z,6.63
2022-08-25T02:04:34.320Z,6.82
2022-08-25T02:04:57.431Z,6.57
2022-08-25T02:05:23.545Z,6.78
2022-08-25T02:05:47.503Z,6.30
2022-08-25T02:06:12.041Z,6.22
2022-08-25T02:06:36.719Z,6.60
2022-08-25T02:07:00.475Z,7.03
2022-08-25T02:07:24.354Z,6.53
2022-08-25T02:07:47.133Z,6.30
2022-08-25T02:08:09.872Z,6.65
2022-08-25T02:08:32.912Z,6.32
2022-08-25T02:08:57.829Z,6.45
2022-08-25T02:09:20.604Z,6.45
2022-08-25T02:09:44.528Z,6.65
2022-08-25T02:10:07.772Z,6.20
2022-08-25T02:10:30.692Z,6.35
2022-08-25T02:10:55.831Z,7.22
2022-08-25T02:11:18.608Z,6.60
2022-08-25T02:11:42.532Z,6.45
2022-08-25T02:12:05.627Z,6.55
2022-08-25T02:12:29.372Z,7.28
2022-08-25T02:12:54.320Z,6.57
2022-08-25T02:13:31.005Z,6.88
2022-08-25T02:13:54.450Z,6.75
2022-08-25T02:14:18.468Z,6.78
2022-08-25T02:14:41.658Z,6.53
2022-08-25T02:15:05.719Z,6.60
2022-08-25T02:15:31.698Z,6.70
2022-08-25T02:15:56.698Z,6.80
2022-08-25T02:16:22.843Z,6.73
2022-08-25T02:16:47.821Z,7.18
2022-08-25T02:17:10.594Z,6.53
2022-08-25T02:17:34.284Z,6.68
2022-08-25T02:17:57.644Z,6.70
2022-08-25T02:18:20.928Z,6.72
2022-08-25T02:18:43.795Z,6.57
2022-08-25T02:19:07.100Z,6.70
2022-08-25T02:19:31.744Z,6.32
2022-08-25T02:19:57.025Z,6.47
2022-08-25T02:20:19.879Z,6.50
2022-08-25T02:20:42.705Z,6.55
2022-08-25T02:21:05.746Z,6.80
2022-08-25T02:21:28.739Z,6.72
2022-08-25T02:21:53.286Z,6.82
2022-08-25T02:22:16.155Z,6.72
2022-08-25T02:22:39.014Z,6.90
2022-08-25T02:23:04.552Z,6.80
2022-08-25T02:23:27.447Z,6.80
2022-08-25T02:23:50.797Z,6.68
2022-08-25T02:24:14.200Z,6.72
2022-08-25T02:24:37.987Z,6.70
2022-08-25T02:25:02.000Z,6.55
2022-08-25T02:25:24.825Z,6.72
2022-08-25T02:25:47.725Z,6.78
2022-08-25T02:26:10.646Z,6.45
2022-08-25T02:26:34.014Z,6.68
2022-08-25T02:26:58.165Z,6.30
2022-08-25T02:27:20.930Z,6.18
2022-08-25T02:27:43.811Z,6.60
2022-08-25T02:28:07.004Z,6.32
2022-08-25T02:28:30.045Z,6.57
2022-08-25T02:28:53.004Z,6.35
2022-08-25T02:29:17.002Z,6.50
2022-08-25T02:29:39.983Z,6.30
2022-08-25T02:30:02.944Z,6.45
2022-08-25T02:30:26.060Z,6.38
2022-08-25T02:30:49.089Z,5.95
2022-08-25T02:31:12.088Z,6.80
2022-08-25T02:31:35.640Z,6.30
2022-08-25T02:31:59.033Z,6.53
2022-08-25T02:32:21.707Z,6.35
2022-08-25T02:32:44.683Z,6.80
2022-08-25T02:33:07.458Z,6.68
2022-08-25T02:33:30.251Z,6.32
2022-08-25T02:33:56.368Z,6.25
2022-08-25T02:34:19.145Z,6.43
2022-08-25T02:34:41.868Z,6.97
2022-08-25T02:35:06.458Z,6.43
2022-08-25T02:35:29.810Z,6.47
2022-08-25T02:35:52.744Z,6.22
2022-08-25T02:36:16.208Z,6.25
2022-08-25T02:36:38.944Z,6.53
2022-08-25T02:37:03.563Z,6.65
2022-08-25T02:37:26.272Z,6.47
2022-08-25T02:37:50.594Z,6.65
2022-08-25T02:38:16.703Z,6.47
2022-08-25T02:38:39.680Z,6.57
2022-08-25T02:39:02.783Z,7.03
2022-08-25T02:39:27.001Z,6.63
2022-08-25T02:39:50.380Z,6.95
2022-08-25T02:40:13.580Z,7.10
2022-08-25T02:40:37.355Z,6.93
2022-08-25T02:41:00.897Z,6.72
2022-08-25T02:41:27.806Z,6.70
2022-08-25T02:41:54.452Z,6.70
2022-08-25T02:42:17.425Z,7.25
2022-08-25T02:42:40.241Z,7.20
2022-08-25T02:43:06.105Z,6.78
2022-08-25T02:43:29.409Z,6.00
2022-08-25T02:43:52.233Z,6.57
2022-08-25T02:44:15.038Z,6.40
2022-08-25T02:44:37.974Z,6.80
2022-08-25T02:45:01.000Z,6.75
2022-08-25T02:45:24.142Z,6.72
2022-08-25T02:45:47.632Z,6.78
2022-08-25T02:46:11.647Z,6.97
2022-08-25T02:46:34.610Z,6.90
2022-08-25T02:47:00.121Z,7.35
2022-08-25T02:47:26.776Z,6.55
2022-08-25T02:47:50.258Z,6.97
2022-08-25T02:48:13.009Z,6.97
2022-08-25T02:48:36.049Z,6.97
2022-08-25T02:48:59.178Z,6.70
2022-08-25T02:49:21.908Z,7.22
2022-08-25T02:49:44.840Z,7.22
2022-08-25T02:50:09.019Z,7.40
2022-08-25T02:50:32.520Z,7.45
2022-08-25T02:51:00.927Z,7.15
2022-08-25T02:51:24.460Z,7.28
2022-08-25T02:51:47.305Z,7.43
2022-08-25T02:52:11.840Z,7.60
2022-08-25T02:52:35.452Z,7.20
2022-08-25T02:52:58.239Z,7.22
2022-08-25T02:53:21.121Z,7.30
2022-08-25T02:53:46.152Z,7.20
2022-08-25T02:54:09.495Z,7.07
2022-08-25T02:54:32.561Z,7.22
2022-08-25T02:54:55.895Z,7.10
2022-08-25T02:55:18.934Z,7.55
2022-08-25T02:55:41.859Z,7.57
2022-08-25T02:56:05.009Z,8.13
2022-08-25T02:56:27.839Z,7.95
2022-08-25T02:56:50.834Z,7.78
2022-08-25T02:57:16.462Z,8.05
2022-08-25T02:57:39.260Z,8.45
2022-08-25T02:58:02.199Z,8.27
2022-08-25T02:58:25.824Z,8.07
2022-08-25T02:58:48.883Z,8.02
2022-08-25T02:59:11.684Z,8.27
2022-08-25T02:59:36.068Z,7.85
2022-08-25T02:59:59.303Z,7.88
2022-08-25T03:00:22.259Z,8.10
2022-08-25T03:00:46.219Z,8.23
2022-08-25T03:01:12.314Z,7.60
2022-08-25T03:01:35.487Z,7.88
2022-08-25T03:01:58.389Z,7.93
2022-08-25T03:02:21.389Z,7.95
2022-08-25T03:02:44.400Z,7.70
2022-08-25T03:03:07.261Z,7.90
2022-08-25T03:03:30.250Z,7.68
2022-08-25T03:03:53.202Z,8.20
2022-08-25T03:04:16.273Z,8.55
2022-08-25T03:04:39.129Z,7.68
2022-08-25T03:05:02.024Z,8.10
2022-08-25T03:05:25.089Z,8.27
2022-08-25T03:05:47.848Z,8.30
2022-08-25T03:06:11.269Z,9.07
2022-08-25T03:06:34.130Z,8.98
2022-08-25T03:06:57.191Z,8.23
2022-08-25T03:07:21.856Z,8.90
2022-08-25T03:07:47.810Z,8.82
2022-08-25T03:08:11.445Z,7.70
2022-08-25T03:08:34.316Z,8.43
2022-08-25T03:08:57.346Z,7.95
2022-08-25T03:09:20.540Z,8.38
2022-08-25T03:09:44.555Z,8.52
2022-08-25T03:10:08.771Z,8.63
2022-08-25T03:10:31.890Z,8.35
2022-08-25T03:10:54.631Z,8.05
2022-08-25T03:11:18.060Z,8.27
2022-08-25T03:11:43.270Z,8.65
2022-08-25T03:12:06.791Z,8.18
2022-08-25T03:12:29.701Z,8.15
2022-08-25T03:12:52.427Z,8.32
2022-08-25T03:13:15.281Z,8.43
2022-08-25T03:13:38.381Z,8.40
2022-08-25T03:14:01.256Z,8.30
2022-08-25T03:14:24.251Z,8.55
2022-08-25T03:14:47.011Z,8.50
2022-08-25T03:15:13.127Z,8.32
2022-08-25T03:15:38.136Z,7.53
2022-08-25T03:16:02.994Z,8.02
2022-08-25T03:16:27.728Z,8.25
2022-08-25T03:16:51.759Z,7.60
2022-08-25T03:17:14.645Z,7.50
2022-08-25T03:17:37.564Z,7.85
2022-08-25T03:18:02.561Z,7.32
2022-08-25T03:18:26.492Z,6.85
2022-08-25T03:18:49.650Z,6.90
2022-08-25T03:19:12.612Z,7.07
2022-08-25T03:19:35.440Z,7.13
2022-08-25T03:19:58.530Z,7.28
2022-08-25T03:20:21.706Z,7.25
2022-08-25T03:20:44.706Z,7.05
2022-08-25T03:21:08.045Z,7.30
2022-08-25T03:21:30.789Z,6.80
2022-08-25T03:21:56.386Z,6.88
2022-08-25T03:22:21.650Z,6.85
2022-08-25T03:22:45.078Z,6.60
2022-08-25T03:23:08.109Z,6.72
2022-08-25T03:23:30.813Z,6.63
2022-08-25T03:23:56.287Z,6.50
2022-08-25T03:24:19.112Z,6.70
2022-08-25T03:24:41.917Z,6.50
2022-08-25T03:25:24.911Z,6.63
2022-08-25T03:26:06.301Z,6.70
2022-08-25T03:26:47.927Z,6.43
2022-08-25T03:27:11.328Z,7.15
2022-08-25T03:27:34.945Z,7.07
2022-08-25T03:27:57.726Z,7.03
2022-08-25T03:28:20.691Z,7.47
2022-08-25T03:28:51.773Z,6.68
2022-08-25T03:29:15.713Z,6.53
2022-08-25T03:29:39.078Z,6.45
2022-08-25T03:30:03.758Z,6.47
2022-08-25T03:30:26.759Z,6.60
2022-08-25T03:30:53.362Z,6.55
2022-08-25T03:31:19.413Z,6.88
2022-08-25T03:31:45.043Z,6.90
2022-08-25T03:32:08.079Z,6.75
2022-08-25T03:32:31.593Z,6.68
2022-08-25T03:32:54.368Z,6.28
2022-08-25T03:33:17.324Z,6.47
2022-08-25T03:33:40.364Z,6.40
2022-08-25T03:34:03.399Z,6.80
2022-08-25T03:34:28.069Z,6.80
2022-08-25T03:34:51.729Z,6.72
2022-08-25T03:35:14.629Z,6.63
2022-08-25T03:35:37.524Z,7.00
2022-08-25T03:36:00.502Z,6.90
2022-08-25T03:36:23.430Z,6.90
2022-08-25T03:36:46.938Z,6.70
2022-08-25T03:37:10.311Z,6.80
2022-08-25T03:37:34.789Z,6.90
2022-08-25T03:38:00.457Z,6.78
2022-08-25T03:38:23.917Z,6.93
2022-08-25T03:38:46.908Z,6.47
2022-08-25T03:39:13.032Z,6.32
2022-08-25T03:39:35.881Z,6.80
2022-08-25T03:39:58.700Z,6.78
2022-08-25T03:40:23.616Z,6.50
2022-08-25T03:40:46.403Z,6.88
2022-08-25T03:41:15.108Z,6.40
2022-08-25T03:41:38.078Z,6.90
2022-08-25T03:42:01.632Z,6.90
2022-08-25T03:42:26.532Z,7.22
2022-08-25T03:42:49.515Z,6.60
2022-08-25T03:43:12.865Z,7.07
2022-08-25T03:43:40.052Z,7.05
2022-08-25T03:44:04.614Z,6.90
2022-08-25T03:44:27.400Z,7.00
2022-08-25T03:44:50.170Z,6.38
2022-08-25T03:45:13.477Z,6.60
2022-08-25T03:45:39.910Z,6.70
2022-08-25T03:46:02.829Z,6.80
2022-08-25T03:46:26.758Z,6.90
2022-08-25T03:46:51.434Z,7.03
2022-08-25T03:47:14.175Z,6.95
2022-08-25T03:47:37.120Z,7.28
2022-08-25T03:47:59.996Z,6.95
2022-08-25T03:48:22.860Z,6.78
2022-08-25T03:48:45.991Z,6.55
2022-08-25T03:49:10.091Z,6.93
2022-08-25T03:49:33.021Z,7.15
2022-08-25T03:49:57.758Z,7.13
2022-08-25T03:50:21.070Z,7.00
2022-08-25T03:50:50.620Z,6.70
2022-08-25T03:51:19.905Z,7.05
2022-08-25T03:51:44.486Z,6.82
2022-08-25T03:52:07.350Z,6.78
2022-08-25T03:52:30.286Z,6.70
2022-08-25T03:52:56.545Z,7.07
2022-08-25T03:53:19.460Z,7.00
2022-08-25T03:53:42.297Z,6.85
2022-08-25T03:54:05.343Z,7.00
2022-08-25T03:54:28.692Z,7.07
2022-08-25T03:54:51.784Z,7.47
2022-08-25T03:55:15.044Z,7.00
2022-08-25T03:55:37.985Z,7.55
2022-08-25T03:56:00.906Z,7.05
2022-08-25T03:56:24.730Z,6.70
2022-08-25T03:56:47.589Z,7.32
2022-08-25T03:57:10.294Z,7.15
2022-08-25T03:57:33.164Z,7.10
2022-08-25T03:57:58.666Z,6.80
2022-08-25T03:58:21.496Z,6.90
2022-08-25T03:58:44.771Z,7.25
2022-08-25T03:59:10.298Z,7.22
2022-08-25T03:59:33.657Z,7.40
2022-08-25T03:59:56.596Z,7.05
2022-08-25T04:00:19.569Z,7.00
2022-08-25T04:00:42.525Z,7.45
2022-08-25T04:01:05.417Z,6.93
2022-08-25T04:01:28.326Z,7.28
2022-08-25T04:01:55.064Z,7.47
2022-08-25T04:02:18.847Z,7.43
2022-08-25T04:02:43.288Z,7.40
2022-08-25T04:03:09.298Z,7.18
2022-08-25T04:03:32.133Z,6.88
2022-08-25T04:03:55.156Z,7.00
2022-08-25T04:04:18.137Z,6.85
2022-08-25T04:04:41.050Z,6.97
2022-08-25T04:05:04.518Z,7.38
2022-08-25T04:05:28.133Z,6.78
2022-08-25T04:05:51.419Z,6.82
2022-08-25T04:06:14.433Z,6.72
2022-08-25T04:06:38.408Z,6.70
2022-08-25T04:07:04.089Z,6.63
2022-08-25T04:07:30.698Z,6.25
2022-08-25T04:07:56.080Z,6.07
2022-08-25T04:08:19.514Z,6.50
2022-08-25T04:08:42.642Z,7.18
2022-08-25T04:09:05.577Z,7.00
2022-08-25T04:09:28.627Z,7.07
2022-08-25T04:09:56.467Z,6.85
2022-08-25T04:10:20.883Z,6.93
2022-08-25T04:10:43.957Z,6.57
2022-08-25T04:11:08.141Z,7.20
2022-08-25T04:11:30.977Z,7.00
2022-08-25T04:11:56.078Z,7.15
2022-08-25T04:12:19.182Z,6.85
2022-08-25T04:12:42.999Z,6.50
2022-08-25T04:13:05.922Z,6.82
2022-08-25T04:13:29.534Z,6.78
2022-08-25T04:13:53.025Z,6.50
2022-08-25T04:14:16.587Z,6.72
2022-08-25T04:14:39.684Z,6.78
2022-08-25T04:15:02.610Z,6.43
2022-08-25T04:15:28.552Z,6.68
2022-08-25T04:15:52.905Z,6.57
2022-08-25T04:16:17.110Z,6.50
2022-08-25T04:16:40.252Z,6.60
2022-08-25T04:17:03.170Z,6.47
2022-08-25T04:17:26.069Z,6.47
2022-08-25T04:17:51.881Z,6.50
2022-08-25T04:18:14.946Z,6.75
2022-08-25T04:18:37.866Z,6.57
2022-08-25T04:19:02.619Z,6.55
2022-08-25T04:19:25.534Z,6.50
2022-08-25T04:19:48.366Z,6.30
2022-08-25T04:20:14.136Z,6.60
2022-08-25T04:20:37.359Z,6.60
2022-08-25T04:21:03.641Z,6.75
2022-08-25T04:21:26.670Z,6.70
2022-08-25T04:21:49.523Z,6.47
2022-08-25T04:22:13.292Z,6.93
2022-08-25T04:22:36.990Z,6.70
2022-08-25T04:23:03.014Z,6.40
2022-08-25T04:23:28.629Z,6.55
2022-08-25T04:23:52.073Z,6.57
2022-08-25T04:24:15.008Z,6.90
2022-08-25T04:24:40.244Z,6.95
2022-08-25T04:25:03.568Z,6.50
2022-08-25T04:25:29.476Z,6.13
2022-08-25T04:25:55.738Z,6.25
2022-08-25T04:26:22.168Z,6.68
2022-08-25T04:26:46.618Z,6.60
2022-08-25T04:27:09.588Z,6.70
2022-08-25T04:27:32.408Z,6.70
2022-08-25T04:27:58.024Z,6.60
2022-08-25T04:28:20.794Z,6.78
2022-08-25T04:28:43.610Z,6.30
2022-08-25T04:29:07.100Z,6.53
2022-08-25T04:29:29.972Z,6.90
2022-08-25T04:29:52.823Z,6.85
2022-08-25T04:30:16.213Z,6.50
2022-08-25T04:30:42.789Z,6.82
2022-08-25T04:31:08.069Z,7.13
2022-08-25T04:31:30.994Z,6.38
2022-08-25T04:31:54.250Z,6.55
2022-08-25T04:32:17.166Z,6.30
2022-08-25T04:32:40.141Z,6.35
2022-08-25T04:33:02.979Z,6.32
2022-08-25T04:33:25.718Z,6.57
2022-08-25T04:33:50.301Z,6.43
2022-08-25T04:34:28.854Z,6.90
2022-08-25T04:34:54.061Z,6.53
2022-08-25T04:35:17.071Z,6.57
2022-08-25T04:35:41.340Z,6.40
2022-08-25T04:36:07.747Z,6.57
2022-08-25T04:36:34.560Z,6.93
2022-08-25T04:36:57.780Z,6.68
2022-08-25T04:37:20.636Z,6.75
2022-08-25T04:37:43.755Z,6.80
2022-08-25T04:38:08.110Z,6.95
2022-08-25T04:38:32.425Z,6.60
2022-08-25T04:38:55.350Z,6.18
2022-08-25T04:39:20.385Z,6.60
2022-08-25T04:39:43.480Z,7.10
2022-08-25T04:40:07.874Z,6.95
2022-08-25T04:40:32.682Z,6.90
2022-08-25T04:40:58.356Z,6.57
2022-08-25T04:41:22.715Z,6.03
2022-08-25T04:41:48.561Z,6.75
2022-08-25T04:42:11.726Z,6.20
2022-08-25T04:42:35.298Z,6.72
2022-08-25T04:42:58.297Z,6.57
2022-08-25T04:43:21.221Z,6.65
2022-08-25T04:43:44.591Z,6.50
2022-08-25T04:44:07.436Z,6.40
2022-08-25T04:44:30.479Z,6.25
2022-08-25T04:44:56.086Z,6.72
2022-08-25T04:45:19.176Z,6.43
2022-08-25T04:45:42.087Z,6.22
2022-08-25T04:46:07.027Z,6.50
2022-08-25T04:46:31.596Z,6.25
2022-08-25T04:46:54.390Z,6.05
2022-08-25T04:47:17.436Z,6.32
2022-08-25T04:47:41.516Z,6.68
2022-08-25T04:48:04.994Z,6.50
2022-08-25T04:48:27.920Z,6.53
2022-08-25T04:48:51.773Z,6.18
2022-08-25T04:49:14.579Z,6.80
2022-08-25T04:49:37.755Z,6.90
2022-08-25T04:50:02.475Z,6.40
2022-08-25T04:50:25.829Z,5.90
2022-08-25T04:50:48.565Z,6.72
2022-08-25T04:51:13.024Z,6.80
2022-08-25T04:51:37.385Z,6.57
2022-08-25T04:52:00.374Z,6.07
2022-08-25T04:52:23.214Z,6.38
2022-08-25T04:52:49.509Z,6.35
2022-08-25T04:53:13.924Z,6.13
2022-08-25T04:53:39.799Z,5.93
2022-08-25T04:54:05.720Z,6.28
2022-08-25T04:54:28.537Z,6.13
2022-08-25T04:55:00.373Z,6.68
2022-08-25T04:55:24.383Z,6.47
2022-08-25T04:55:48.053Z,6.13
2022-08-25T04:56:12.034Z,6.45
2022-08-25T04:56:35.083Z,6.78
2022-08-25T04:56:58.101Z,6.50
2022-08-25T04:57:25.473Z,6.40
2022-08-25T04:57:48.708Z,6.90
2022-08-25T04:58:16.694Z,6.78
2022-08-25T04:58:39.823Z,6.50
2022-08-25T04:59:03.540Z,6.57
2022-08-25T04:59:29.925Z,6.50
2022-08-25T04:59:53.808Z,6.53
2022-08-25T05:00:18.327Z,6.68
2022-08-25T05:00:41.854Z,6.45
2022-08-25T05:01:05.003Z,6.72
2022-08-25T05:01:28.190Z,6.53
2022-08-25T05:01:52.342Z,6.45
2022-08-25T05:02:15.574Z,6.55
2022-08-25T05:02:38.627Z,6.45
2022-08-25T05:03:01.558Z,6.30
2022-08-25T05:03:24.413Z,6.03
2022-08-25T05:03:51.606Z,6.47
2022-08-25T05:04:28.212Z,6.30
2022-08-25T05:04:55.619Z,6.70
2022-08-25T05:05:18.590Z,6.53
2022-08-25T05:05:41.494Z,6.53
2022-08-25T05:06:04.505Z,6.70
2022-08-25T05:06:27.741Z,6.57
2022-08-25T05:06:53.449Z,6.53
2022-08-25T05:07:16.528Z,6.22
2022-08-25T05:07:39.460Z,6.25
2022-08-25T05:08:02.389Z,6.32
2022-08-25T05:08:26.990Z,6.60
2022-08-25T05:08:49.959Z,6.90
2022-08-25T05:09:12.848Z,6.43
2022-08-25T05:09:43.001Z,6.70
2022-08-25T05:10:07.456Z,7.05
2022-08-25T05:10:31.176Z,6.63
2022-08-25T05:10:54.813Z,6.45
2022-08-25T05:11:19.258Z,6.68
2022-08-25T05:11:44.018Z,6.20
2022-08-25T05:12:07.737Z,6.40
2022-08-25T05:12:31.618Z,6.20
2022-08-25T05:12:56.084Z,6.30
2022-08-25T05:13:21.129Z,6.75
2022-08-25T05:13:44.309Z,6.20
2022-08-25T05:14:18.318Z,6.75
2022-08-25T05:14:44.461Z,6.93
2022-08-25T05:15:27.580Z,6.75
2022-08-25T05:15:55.056Z,6.65
2022-08-25T05:16:18.250Z,6.80
2022-08-25T05:16:41.356Z,6.63
2022-08-25T05:17:04.342Z,7.43
2022-08-25T05:17:30.104Z,7.22
2022-08-25T05:18:05.495Z,6.90
2022-08-25T05:18:32.234Z,6.80
2022-08-25T05:18:56.198Z,6.72
2022-08-25T05:19:19.553Z,7.10
2022-08-25T05:19:43.258Z,7.10
2022-08-25T05:20:07.108Z,7.10
2022-08-25T05:20:31.268Z,7.38
2022-08-25T05:20:54.338Z,6.95
2022-08-25T05:21:18.503Z,6.78
2022-08-25T05:21:41.521Z,6.97
2022-08-25T05:22:04.472Z,7.60
2022-08-25T05:22:27.472Z,7.20
2022-08-25T05:22:50.453Z,6.93